sensor_id;sensor_type;location;lat;lon;timestamp;pressure;altitude;pressure_sealevel;temperature;humidity
22753;BME280;11543;43.144;24.684;2023-11-21T00:01:54;98615.72;;;9.25;61.57
22753;BME280;11543;43.144;24.684;2023-11-21T00:04:20;98658.50;;;9.52;61.79
22753;BME280;11543;43.144;24.684;2023-11-21T00:06:46;98643.50;;;9.42;61.57
22753;BME280;11543;43.144;24.684;2023-11-21T00:09:13;98614.81;;;9.34;61.03
22753;BME280;11543;43.144;24.684;2023-11-21T00:11:40;98642.88;;;9.48;61.13
22753;BME280;11543;43.144;24.684;2023-11-21T00:14:06;98636.47;;;9.41;61.22
22753;BME280;11543;43.144;24.684;2023-11-21T00:16:32;98624.16;;;9.30;61.59
22753;BME280;11543;43.144;24.684;2023-11-21T00:18:57;98639.06;;;9.33;61.77
22753;BME280;11543;43.144;24.684;2023-11-21T00:21:23;98630.41;;;9.21;61.86
22753;BME280;11543;43.144;24.684;2023-11-21T00:23:48;98639.75;;;9.17;62.11
22753;BME280;11543;43.144;24.684;2023-11-21T00:26:14;98624.28;;;9.11;62.34
22753;BME280;11543;43.144;24.684;2023-11-21T00:28:39;98645.09;;;9.17;62.41
22753;BME280;11543;43.144;24.684;2023-11-21T00:31:05;98623.44;;;9.10;62.07
22753;BME280;11543;43.144;24.684;2023-11-21T00:33:31;98646.09;;;9.16;62.38
22753;BME280;11543;43.144;24.684;2023-11-21T00:35:56;98616.47;;;9.00;62.46
22753;BME280;11543;43.144;24.684;2023-11-21T00:38:22;98619.53;;;9.05;62.54
22753;BME280;11543;43.144;24.684;2023-11-21T00:40:48;98612.50;;;9.04;62.65
22753;BME280;11543;43.144;24.684;2023-11-21T00:43:13;98598.19;;;8.95;62.73
22753;BME280;11543;43.144;24.684;2023-11-21T00:45:39;98598.03;;;8.97;62.93
22753;BME280;11543;43.144;24.684;2023-11-21T00:48:05;98604.09;;;8.99;62.72
22753;BME280;11543;43.144;24.684;2023-11-21T00:50:31;98623.19;;;9.04;62.84
22753;BME280;11543;43.144;24.684;2023-11-21T00:52:56;98603.00;;;8.91;63.10
22753;BME280;11543;43.144;24.684;2023-11-21T00:55:22;98607.50;;;8.91;62.88
22753;BME280;11543;43.144;24.684;2023-11-21T00:57:48;98609.00;;;8.76;63.10
22753;BME280;11543;43.144;24.684;2023-11-21T01:00:14;98607.69;;;8.52;63.64
22753;BME280;11543;43.144;24.684;2023-11-21T01:02:43;98621.72;;;8.64;64.10
22753;BME280;11543;43.144;24.684;2023-11-21T01:05:10;98619.63;;;8.68;64.11
22753;BME280;11543;43.144;24.684;2023-11-21T01:07:36;98611.06;;;8.54;64.27
22753;BME280;11543;43.144;24.684;2023-11-21T01:10:02;98608.44;;;8.45;64.35
22753;BME280;11543;43.144;24.684;2023-11-21T01:12:28;98603.81;;;8.37;64.55
22753;BME280;11543;43.144;24.684;2023-11-21T01:14:54;98609.44;;;8.44;64.65
22753;BME280;11543;43.144;24.684;2023-11-21T01:17:19;98598.13;;;8.50;64.74
22753;BME280;11543;43.144;24.684;2023-11-21T01:19:47;98579.03;;;8.45;64.61
22753;BME280;11543;43.144;24.684;2023-11-21T01:22:13;98594.72;;;8.57;64.78
22753;BME280;11543;43.144;24.684;2023-11-21T01:24:38;98585.16;;;8.55;64.57
22753;BME280;11543;43.144;24.684;2023-11-21T01:27:04;98580.81;;;8.54;64.33
22753;BME280;11543;43.144;24.684;2023-11-21T01:29:30;98579.53;;;8.58;63.88
22753;BME280;11543;43.144;24.684;2023-11-21T01:31:55;98582.06;;;8.59;64.08
22753;BME280;11543;43.144;24.684;2023-11-21T01:34:22;98590.81;;;8.52;64.35
22753;BME280;11543;43.144;24.684;2023-11-21T01:36:48;98584.38;;;8.45;64.53
22753;BME280;11543;43.144;24.684;2023-11-21T01:39:14;98583.00;;;8.41;64.79
22753;BME280;11543;43.144;24.684;2023-11-21T01:41:41;98573.44;;;8.28;64.89
22753;BME280;11543;43.144;24.684;2023-11-21T01:44:09;98583.59;;;8.25;64.88
22753;BME280;11543;43.144;24.684;2023-11-21T01:46:35;98587.84;;;8.18;65.05
22753;BME280;11543;43.144;24.684;2023-11-21T01:49:01;98552.22;;;7.90;65.42
22753;BME280;11543;43.144;24.684;2023-11-21T01:51:26;98574.56;;;7.89;65.69
22753;BME280;11543;43.144;24.684;2023-11-21T01:53:52;98567.84;;;7.85;65.75
22753;BME280;11543;43.144;24.684;2023-11-21T01:56:18;98576.13;;;7.82;66.33
22753;BME280;11543;43.144;24.684;2023-11-21T01:58:43;98567.00;;;7.75;66.44
22753;BME280;11543;43.144;24.684;2023-11-21T02:01:12;98559.56;;;7.59;66.98
22753;BME280;11543;43.144;24.684;2023-11-21T02:03:37;98565.78;;;7.50;66.76
22753;BME280;11543;43.144;24.684;2023-11-21T02:06:03;98593.16;;;7.61;67.27
22753;BME280;11543;43.144;24.684;2023-11-21T02:08:29;98563.41;;;7.37;67.37
22753;BME280;11543;43.144;24.684;2023-11-21T02:10:54;98561.56;;;7.28;67.40
22753;BME280;11543;43.144;24.684;2023-11-21T02:13:19;98562.69;;;7.35;67.76
22753;BME280;11543;43.144;24.684;2023-11-21T02:15:45;98566.50;;;7.23;67.70
22753;BME280;11543;43.144;24.684;2023-11-21T02:18:11;98566.91;;;7.28;68.40
22753;BME280;11543;43.144;24.684;2023-11-21T02:20:36;98560.03;;;7.35;68.67
22753;BME280;11543;43.144;24.684;2023-11-21T02:23:04;98558.06;;;7.37;68.27
22753;BME280;11543;43.144;24.684;2023-11-21T02:25:31;98568.44;;;7.40;68.52
22753;BME280;11543;43.144;24.684;2023-11-21T02:27:59;98576.16;;;7.43;68.17
22753;BME280;11543;43.144;24.684;2023-11-21T02:30:25;98580.09;;;7.58;68.47
22753;BME280;11543;43.144;24.684;2023-11-21T02:32:51;98567.72;;;7.67;68.47
22753;BME280;11543;43.144;24.684;2023-11-21T02:35:20;98551.13;;;7.63;68.37
22753;BME280;11543;43.144;24.684;2023-11-21T02:37:51;98533.56;;;7.61;68.25
22753;BME280;11543;43.144;24.684;2023-11-21T02:40:17;98551.38;;;7.80;68.03
22753;BME280;11543;43.144;24.684;2023-11-21T02:42:46;98554.22;;;7.68;67.63
22753;BME280;11543;43.144;24.684;2023-11-21T02:45:13;98554.53;;;7.56;68.06
22753;BME280;11543;43.144;24.684;2023-11-21T02:47:39;98571.09;;;7.59;67.92
22753;BME280;11543;43.144;24.684;2023-11-21T02:50:06;98557.91;;;7.48;68.43
22753;BME280;11543;43.144;24.684;2023-11-21T02:52:33;98562.25;;;7.49;68.77
22753;BME280;11543;43.144;24.684;2023-11-21T02:54:59;98562.09;;;7.60;68.69
22753;BME280;11543;43.144;24.684;2023-11-21T02:57:24;98562.06;;;7.80;68.81
22753;BME280;11543;43.144;24.684;2023-11-21T02:59:50;98554.19;;;7.78;68.46
22753;BME280;11543;43.144;24.684;2023-11-21T03:02:16;98549.44;;;7.82;67.86
22753;BME280;11543;43.144;24.684;2023-11-21T03:04:41;98547.16;;;7.87;67.67
22753;BME280;11543;43.144;24.684;2023-11-21T03:07:08;98553.31;;;7.97;67.68
22753;BME280;11543;43.144;24.684;2023-11-21T03:09:35;98563.13;;;8.06;67.38
22753;BME280;11543;43.144;24.684;2023-11-21T03:12:00;98576.59;;;8.14;66.88
22753;BME280;11543;43.144;24.684;2023-11-21T03:14:26;98559.47;;;8.07;66.84
22753;BME280;11543;43.144;24.684;2023-11-21T03:16:51;98546.28;;;7.96;67.05
22753;BME280;11543;43.144;24.684;2023-11-21T03:19:16;98551.16;;;8.10;66.83
22753;BME280;11543;43.144;24.684;2023-11-21T03:21:42;98568.97;;;8.19;66.39
22753;BME280;11543;43.144;24.684;2023-11-21T03:24:08;98549.47;;;8.09;66.65
22753;BME280;11543;43.144;24.684;2023-11-21T03:26:33;98551.00;;;8.12;66.37
22753;BME280;11543;43.144;24.684;2023-11-21T03:28:59;98544.44;;;8.06;66.31
22753;BME280;11543;43.144;24.684;2023-11-21T03:31:24;98554.94;;;8.17;66.05
22753;BME280;11543;43.144;24.684;2023-11-21T03:33:50;98551.72;;;8.14;66.21
22753;BME280;11543;43.144;24.684;2023-11-21T03:36:15;98539.78;;;8.08;66.40
22753;BME280;11543;43.144;24.684;2023-11-21T03:38:43;98563.50;;;8.21;66.28
22753;BME280;11543;43.144;24.684;2023-11-21T03:41:08;98546.81;;;8.09;66.12
22753;BME280;11543;43.144;24.684;2023-11-21T03:43:37;98584.47;;;8.16;66.08
22753;BME280;11543;43.144;24.684;2023-11-21T03:46:03;98581.03;;;7.96;66.62
22753;BME280;11543;43.144;24.684;2023-11-21T03:48:29;98568.97;;;7.73;66.68
22753;BME280;11543;43.144;24.684;2023-11-21T03:50:55;98543.56;;;7.49;66.75
22753;BME280;11543;43.144;24.684;2023-11-21T03:53:20;98537.13;;;7.42;67.56
22753;BME280;11543;43.144;24.684;2023-11-21T03:55:46;98551.16;;;7.44;67.43
22753;BME280;11543;43.144;24.684;2023-11-21T03:58:11;98581.19;;;7.65;67.93
22753;BME280;11543;43.144;24.684;2023-11-21T04:00:37;98547.22;;;7.48;67.69
22753;BME280;11543;43.144;24.684;2023-11-21T04:03:03;98577.66;;;7.75;67.56
22753;BME280;11543;43.144;24.684;2023-11-21T04:05:28;98553.66;;;7.65;67.58
22753;BME280;11543;43.144;24.684;2023-11-21T04:07:54;98577.81;;;7.83;67.52
22753;BME280;11543;43.144;24.684;2023-11-21T04:10:20;98563.50;;;7.64;67.47
22753;BME280;11543;43.144;24.684;2023-11-21T04:12:45;98564.06;;;7.68;67.53
22753;BME280;11543;43.144;24.684;2023-11-21T04:15:11;98568.13;;;7.82;67.14
22753;BME280;11543;43.144;24.684;2023-11-21T04:17:38;98569.94;;;7.91;67.24
22753;BME280;11543;43.144;24.684;2023-11-21T04:20:05;98551.13;;;7.73;67.20
22753;BME280;11543;43.144;24.684;2023-11-21T04:22:39;98558.28;;;7.73;67.37
22753;BME280;11543;43.144;24.684;2023-11-21T04:25:14;98540.16;;;7.66;67.52
22753;BME280;11543;43.144;24.684;2023-11-21T04:27:40;98557.16;;;7.65;67.50
22753;BME280;11543;43.144;24.684;2023-11-21T04:30:12;98568.59;;;7.48;67.55
22753;BME280;11543;43.144;24.684;2023-11-21T04:32:38;98570.00;;;7.33;67.90
22753;BME280;11543;43.144;24.684;2023-11-21T04:35:07;98573.66;;;7.32;68.30
22753;BME280;11543;43.144;24.684;2023-11-21T04:37:34;98542.78;;;7.00;68.63
22753;BME280;11543;43.144;24.684;2023-11-21T04:39:59;98562.41;;;6.99;68.98
22753;BME280;11543;43.144;24.684;2023-11-21T04:42:25;98568.59;;;7.10;69.63
22753;BME280;11543;43.144;24.684;2023-11-21T04:44:50;98546.41;;;6.99;69.58
22753;BME280;11543;43.144;24.684;2023-11-21T04:47:18;98523.63;;;6.76;69.58
22753;BME280;11543;43.144;24.684;2023-11-21T04:49:45;98579.84;;;7.03;69.70
22753;BME280;11543;43.144;24.684;2023-11-21T04:52:12;98529.25;;;6.73;70.04
22753;BME280;11543;43.144;24.684;2023-11-21T04:54:37;98552.56;;;6.90;70.40
22753;BME280;11543;43.144;24.684;2023-11-21T04:57:05;98566.34;;;7.05;71.02
22753;BME280;11543;43.144;24.684;2023-11-21T04:59:32;98578.44;;;7.19;70.99
22753;BME280;11543;43.144;24.684;2023-11-21T05:01:58;98555.13;;;7.21;70.73
22753;BME280;11543;43.144;24.684;2023-11-21T05:04:25;98581.38;;;7.45;70.42
22753;BME280;11543;43.144;24.684;2023-11-21T05:06:51;98562.13;;;7.41;70.16
22753;BME280;11543;43.144;24.684;2023-11-21T05:09:16;98579.09;;;7.59;69.96
22753;BME280;11543;43.144;24.684;2023-11-21T05:11:42;98566.88;;;7.66;69.41
22753;BME280;11543;43.144;24.684;2023-11-21T05:14:08;98581.03;;;7.77;69.12
22753;BME280;11543;43.144;24.684;2023-11-21T05:16:34;98602.81;;;7.91;69.02
22753;BME280;11543;43.144;24.684;2023-11-21T05:19:00;98599.44;;;7.99;68.90
22753;BME280;11543;43.144;24.684;2023-11-21T05:21:29;98614.28;;;8.11;68.86
22753;BME280;11543;43.144;24.684;2023-11-21T05:23:57;98591.25;;;8.10;68.67
22753;BME280;11543;43.144;24.684;2023-11-21T05:26:23;98588.97;;;8.15;68.26
22753;BME280;11543;43.144;24.684;2023-11-21T05:28:48;98593.44;;;8.24;68.43
22753;BME280;11543;43.144;24.684;2023-11-21T05:31:14;98574.03;;;8.22;68.24
22753;BME280;11543;43.144;24.684;2023-11-21T05:33:40;98583.59;;;8.35;68.03
22753;BME280;11543;43.144;24.684;2023-11-21T05:36:07;98592.84;;;8.40;68.08
22753;BME280;11543;43.144;24.684;2023-11-21T05:38:35;98597.63;;;8.37;68.12
22753;BME280;11543;43.144;24.684;2023-11-21T05:41:01;98581.75;;;8.25;68.28
22753;BME280;11543;43.144;24.684;2023-11-21T05:43:26;98571.84;;;8.08;68.30
22753;BME280;11543;43.144;24.684;2023-11-21T05:45:54;98600.25;;;8.09;68.64
22753;BME280;11543;43.144;24.684;2023-11-21T05:48:19;98569.38;;;7.78;68.52
22753;BME280;11543;43.144;24.684;2023-11-21T05:50:46;98583.72;;;7.77;68.91
22753;BME280;11543;43.144;24.684;2023-11-21T05:53:12;98575.28;;;7.72;69.49
22753;BME280;11543;43.144;24.684;2023-11-21T05:55:37;98555.31;;;7.76;69.54
22753;BME280;11543;43.144;24.684;2023-11-21T05:58:04;98582.28;;;7.92;69.36
22753;BME280;11543;43.144;24.684;2023-11-21T06:00:30;98576.38;;;7.98;69.43
22753;BME280;11543;43.144;24.684;2023-11-21T06:02:57;98584.09;;;8.01;69.49
22753;BME280;11543;43.144;24.684;2023-11-21T06:05:24;98581.13;;;8.04;69.44
22753;BME280;11543;43.144;24.684;2023-11-21T06:07:50;98602.63;;;8.12;69.27
22753;BME280;11543;43.144;24.684;2023-11-21T06:10:16;98582.56;;;7.98;69.43
22753;BME280;11543;43.144;24.684;2023-11-21T06:12:43;98592.13;;;8.01;69.36
22753;BME280;11543;43.144;24.684;2023-11-21T06:15:09;98581.13;;;8.04;69.66
22753;BME280;11543;43.144;24.684;2023-11-21T06:17:39;98602.84;;;8.28;69.57
22753;BME280;11543;43.144;24.684;2023-11-21T06:20:09;98573.03;;;8.23;69.65
22753;BME280;11543;43.144;24.684;2023-11-21T06:22:42;98599.31;;;8.38;69.24
22753;BME280;11543;43.144;24.684;2023-11-21T06:25:08;98588.63;;;8.28;69.63
22753;BME280;11543;43.144;24.684;2023-11-21T06:27:42;98589.47;;;8.28;69.68
22753;BME280;11543;43.144;24.684;2023-11-21T06:30:08;98584.69;;;8.32;69.52
22753;BME280;11543;43.144;24.684;2023-11-21T06:32:35;98592.84;;;8.40;69.56
22753;BME280;11543;43.144;24.684;2023-11-21T06:35:02;98568.38;;;8.35;69.50
22753;BME280;11543;43.144;24.684;2023-11-21T06:37:29;98598.94;;;8.60;69.37
22753;BME280;11543;43.144;24.684;2023-11-21T06:39:56;98606.34;;;8.66;69.49
22753;BME280;11543;43.144;24.684;2023-11-21T06:42:22;98591.31;;;8.65;69.67
22753;BME280;11543;43.144;24.684;2023-11-21T06:44:48;98604.50;;;8.76;69.98
22753;BME280;11543;43.144;24.684;2023-11-21T06:47:14;98605.28;;;8.86;69.92
22753;BME280;11543;43.144;24.684;2023-11-21T06:49:41;98589.53;;;8.83;69.69
22753;BME280;11543;43.144;24.684;2023-11-21T06:52:06;98592.00;;;8.94;69.67
22753;BME280;11543;43.144;24.684;2023-11-21T06:54:32;98602.34;;;9.07;69.43
22753;BME280;11543;43.144;24.684;2023-11-21T06:56:58;98598.91;;;9.15;69.12
22753;BME280;11543;43.144;24.684;2023-11-21T06:59:23;98594.09;;;9.18;68.50
22753;BME280;11543;43.144;24.684;2023-11-21T07:01:50;98594.69;;;9.30;68.49
22753;BME280;11543;43.144;24.684;2023-11-21T07:04:15;98571.22;;;9.24;68.21
22753;BME280;11543;43.144;24.684;2023-11-21T07:06:43;98578.16;;;9.35;67.87
22753;BME280;11543;43.144;24.684;2023-11-21T07:09:09;98604.72;;;9.64;67.70
22753;BME280;11543;43.144;24.684;2023-11-21T07:11:37;98588.66;;;9.64;67.39
22753;BME280;11543;43.144;24.684;2023-11-21T07:14:03;98560.19;;;9.63;67.07
22753;BME280;11543;43.144;24.684;2023-11-21T07:16:34;98580.78;;;9.88;67.18
22753;BME280;11543;43.144;24.684;2023-11-21T07:19:02;98589.09;;;10.03;67.02
22753;BME280;11543;43.144;24.684;2023-11-21T07:21:34;98570.13;;;9.96;67.08
22753;BME280;11543;43.144;24.684;2023-11-21T07:24:04;98580.94;;;10.12;67.23
22753;BME280;11543;43.144;24.684;2023-11-21T07:26:31;98584.69;;;10.19;67.01
22753;BME280;11543;43.144;24.684;2023-11-21T07:28:57;98573.28;;;10.17;66.76
22753;BME280;11543;43.144;24.684;2023-11-21T07:31:23;98581.75;;;10.31;66.59
22753;BME280;11543;43.144;24.684;2023-11-21T07:33:49;98561.03;;;10.15;66.46
22753;BME280;11543;43.144;24.684;2023-11-21T07:36:16;98558.19;;;10.16;66.55
22753;BME280;11543;43.144;24.684;2023-11-21T07:38:44;98596.59;;;10.43;66.71
22753;BME280;11543;43.144;24.684;2023-11-21T07:41:10;98609.00;;;10.44;66.64
22753;BME280;11543;43.144;24.684;2023-11-21T07:43:36;98608.69;;;10.47;66.66
22753;BME280;11543;43.144;24.684;2023-11-21T07:46:02;98598.28;;;10.44;66.48
22753;BME280;11543;43.144;24.684;2023-11-21T07:48:32;98602.66;;;10.53;66.76
22753;BME280;11543;43.144;24.684;2023-11-21T07:50:58;98606.22;;;10.62;66.53
22753;BME280;11543;43.144;24.684;2023-11-21T07:53:25;98602.75;;;10.69;66.58
22753;BME280;11543;43.144;24.684;2023-11-21T07:55:51;98581.44;;;10.68;66.91
22753;BME280;11543;43.144;24.684;2023-11-21T07:58:17;98588.34;;;10.78;66.80
22753;BME280;11543;43.144;24.684;2023-11-21T08:00:43;98561.50;;;10.70;66.71
22753;BME280;11543;43.144;24.684;2023-11-21T08:03:08;98557.47;;;10.74;66.34
22753;BME280;11543;43.144;24.684;2023-11-21T08:05:34;98590.09;;;11.04;66.18
22753;BME280;11543;43.144;24.684;2023-11-21T08:07:59;98565.94;;;11.04;66.13
22753;BME280;11543;43.144;24.684;2023-11-21T08:10:25;98579.91;;;11.24;65.92
22753;BME280;11543;43.144;24.684;2023-11-21T08:12:51;98560.94;;;11.25;65.91
22753;BME280;11543;43.144;24.684;2023-11-21T08:15:16;98551.75;;;11.36;65.60
22753;BME280;11543;43.144;24.684;2023-11-21T08:17:42;98574.56;;;11.56;65.56
22753;BME280;11543;43.144;24.684;2023-11-21T08:20:08;98564.50;;;11.58;65.78
22753;BME280;11543;43.144;24.684;2023-11-21T08:22:36;98557.78;;;11.62;65.53
22753;BME280;11543;43.144;24.684;2023-11-21T08:25:02;98572.38;;;11.76;65.35
22753;BME280;11543;43.144;24.684;2023-11-21T08:27:29;98565.34;;;11.75;64.93
22753;BME280;11543;43.144;24.684;2023-11-21T08:29:54;98553.56;;;11.76;64.99
22753;BME280;11543;43.144;24.684;2023-11-21T08:32:21;98571.06;;;11.88;65.12
22753;BME280;11543;43.144;24.684;2023-11-21T08:34:47;98570.38;;;11.86;65.06
22753;BME280;11543;43.144;24.684;2023-11-21T08:37:16;98555.59;;;11.90;64.78
22753;BME280;11543;43.144;24.684;2023-11-21T08:39:43;98566.69;;;11.95;64.63
22753;BME280;11543;43.144;24.684;2023-11-21T08:42:08;98546.53;;;11.91;64.88
22753;BME280;11543;43.144;24.684;2023-11-21T08:44:34;98538.63;;;11.90;64.53
22753;BME280;11543;43.144;24.684;2023-11-21T08:46:59;98535.78;;;11.91;64.88
22753;BME280;11543;43.144;24.684;2023-11-21T08:49:25;98534.75;;;12.00;65.14
22753;BME280;11543;43.144;24.684;2023-11-21T08:51:53;98552.19;;;12.21;65.33
22753;BME280;11543;43.144;24.684;2023-11-21T08:54:20;98549.47;;;12.29;64.50
22753;BME280;11543;43.144;24.684;2023-11-21T08:56:46;98534.03;;;12.23;63.87
22753;BME280;11543;43.144;24.684;2023-11-21T08:59:13;98538.69;;;12.37;63.57
22753;BME280;11543;43.144;24.684;2023-11-21T09:01:39;98516.50;;;12.35;63.38
22753;BME280;11543;43.144;24.684;2023-11-21T09:04:05;98517.47;;;12.42;63.00
22753;BME280;11543;43.144;24.684;2023-11-21T09:06:30;98514.09;;;12.48;62.88
22753;BME280;11543;43.144;24.684;2023-11-21T09:08:56;98510.16;;;12.59;62.44
22753;BME280;11543;43.144;24.684;2023-11-21T09:11:21;98491.88;;;12.54;61.66
22753;BME280;11543;43.144;24.684;2023-11-21T09:13:47;98500.19;;;12.67;61.55
22753;BME280;11543;43.144;24.684;2023-11-21T09:16:14;98498.78;;;12.80;62.00
22753;BME280;11543;43.144;24.684;2023-11-21T09:18:40;98490.78;;;12.94;62.70
22753;BME280;11543;43.144;24.684;2023-11-21T09:21:06;98475.72;;;13.08;62.73
22753;BME280;11543;43.144;24.684;2023-11-21T09:23:31;98496.47;;;13.30;63.20
22753;BME280;11543;43.144;24.684;2023-11-21T09:25:57;98492.59;;;13.48;62.53
22753;BME280;11543;43.144;24.684;2023-11-21T09:28:25;98492.53;;;13.56;61.81
22753;BME280;11543;43.144;24.684;2023-11-21T09:30:53;98463.97;;;13.47;61.14
22753;BME280;11543;43.144;24.684;2023-11-21T09:33:18;98476.53;;;13.54;60.77
22753;BME280;11543;43.144;24.684;2023-11-21T09:35:44;98470.59;;;13.59;59.56
22753;BME280;11543;43.144;24.684;2023-11-21T09:38:09;98469.22;;;13.63;58.35
22753;BME280;11543;43.144;24.684;2023-11-21T09:40:37;98471.47;;;13.74;58.30
22753;BME280;11543;43.144;24.684;2023-11-21T09:43:09;98470.34;;;13.83;58.21
22753;BME280;11543;43.144;24.684;2023-11-21T09:45:45;98463.88;;;13.92;58.43
22753;BME280;11543;43.144;24.684;2023-11-21T09:48:13;98444.91;;;14.00;59.43
22753;BME280;11543;43.144;24.684;2023-11-21T09:50:41;98452.59;;;14.18;59.53
22753;BME280;11543;43.144;24.684;2023-11-21T09:53:20;98446.16;;;14.34;59.47
22753;BME280;11543;43.144;24.684;2023-11-21T09:55:48;98429.59;;;14.37;58.83
22753;BME280;11543;43.144;24.684;2023-11-21T09:58:17;98427.19;;;14.42;58.33
22753;BME280;11543;43.144;24.684;2023-11-21T10:00:44;98411.66;;;14.44;58.07
22753;BME280;11543;43.144;24.684;2023-11-21T10:03:10;98417.28;;;14.64;58.87
22753;BME280;11543;43.144;24.684;2023-11-21T10:05:37;98417.25;;;14.79;58.53
22753;BME280;11543;43.144;24.684;2023-11-21T10:08:10;98418.66;;;14.96;57.80
22753;BME280;11543;43.144;24.684;2023-11-21T10:10:37;98407.47;;;14.99;57.28
22753;BME280;11543;43.144;24.684;2023-11-21T10:13:04;98412.22;;;15.18;56.68
22753;BME280;11543;43.144;24.684;2023-11-21T10:15:33;98392.22;;;15.13;55.97
22753;BME280;11543;43.144;24.684;2023-11-21T10:18:05;98407.78;;;15.39;56.63
22753;BME280;11543;43.144;24.684;2023-11-21T10:20:32;98382.81;;;15.37;55.66
22753;BME280;11543;43.144;24.684;2023-11-21T10:23:03;98391.56;;;15.39;54.28
22753;BME280;11543;43.144;24.684;2023-11-21T10:25:30;98383.28;;;15.40;53.13
22753;BME280;11543;43.144;24.684;2023-11-21T10:28:02;98390.41;;;15.48;52.43
22753;BME280;11543;43.144;24.684;2023-11-21T10:30:33;98369.94;;;15.39;50.93
22753;BME280;11543;43.144;24.684;2023-11-21T10:33:05;98382.53;;;15.53;50.48
22753;BME280;11543;43.144;24.684;2023-11-21T10:35:47;98377.56;;;15.56;50.75
22753;BME280;11543;43.144;24.684;2023-11-21T10:38:19;98348.81;;;15.49;51.01
22753;BME280;11543;43.144;24.684;2023-11-21T10:40:47;98337.59;;;15.52;50.29
22753;BME280;11543;43.144;24.684;2023-11-21T10:43:14;98351.84;;;15.60;50.66
22753;BME280;11543;43.144;24.684;2023-11-21T10:45:43;98318.88;;;15.50;50.55
22753;BME280;11543;43.144;24.684;2023-11-21T10:48:10;98313.78;;;15.62;51.48
22753;BME280;11543;43.144;24.684;2023-11-21T10:50:37;98312.63;;;15.78;51.59
22753;BME280;11543;43.144;24.684;2023-11-21T10:53:04;98321.84;;;15.97;51.16
22753;BME280;11543;43.144;24.684;2023-11-21T10:55:31;98310.00;;;15.98;50.58
22753;BME280;11543;43.144;24.684;2023-11-21T10:57:59;98296.47;;;15.98;50.37
22753;BME280;11543;43.144;24.684;2023-11-21T11:00:26;98305.88;;;16.15;49.68
22753;BME280;11543;43.144;24.684;2023-11-21T11:02:53;98279.25;;;16.12;48.50
22753;BME280;11543;43.144;24.684;2023-11-21T11:05:23;98312.19;;;16.35;47.32
22753;BME280;11543;43.144;24.684;2023-11-21T11:08:11;98288.88;;;16.34;47.20
22753;BME280;11543;43.144;24.684;2023-11-21T11:10:37;98277.63;;;16.37;47.50
22753;BME280;11543;43.144;24.684;2023-11-21T11:13:04;98278.72;;;16.49;47.13
22753;BME280;11543;43.144;24.684;2023-11-21T11:15:29;98263.09;;;16.51;47.52
22753;BME280;11543;43.144;24.684;2023-11-21T11:17:55;98262.06;;;16.59;47.88
22753;BME280;11543;43.144;24.684;2023-11-21T11:20:33;98273.97;;;16.84;47.85
22753;BME280;11543;43.144;24.684;2023-11-21T11:26:06;98263.94;;;16.98;47.49
22753;BME280;11543;43.144;24.684;2023-11-21T11:34:23;98246.84;;;17.11;47.63
22753;BME280;11543;43.144;24.684;2023-11-21T11:37:03;98231.44;;;16.98;48.39
22753;BME280;11543;43.144;24.684;2023-11-21T11:39:30;98259.75;;;17.15;48.45
22753;BME280;11543;43.144;24.684;2023-11-21T11:41:57;98252.25;;;17.17;48.15
22753;BME280;11543;43.144;24.684;2023-11-21T11:47:37;98254.94;;;17.24;48.49
22753;BME280;11543;43.144;24.684;2023-11-21T11:50:10;98246.19;;;17.22;48.73
22753;BME280;11543;43.144;24.684;2023-11-21T11:55:15;98250.34;;;17.38;48.37
22753;BME280;11543;43.144;24.684;2023-11-21T11:57:54;98253.25;;;17.43;48.35
22753;BME280;11543;43.144;24.684;2023-11-21T12:02:53;98228.00;;;17.42;48.72
22753;BME280;11543;43.144;24.684;2023-11-21T12:05:23;98235.47;;;17.54;48.87
22753;BME280;11543;43.144;24.684;2023-11-21T12:07:55;98225.03;;;17.57;48.72
22753;BME280;11543;43.144;24.684;2023-11-21T12:10:25;98194.63;;;17.42;48.76
22753;BME280;11543;43.144;24.684;2023-11-21T12:15:24;98216.25;;;17.68;48.81
22753;BME280;11543;43.144;24.684;2023-11-21T12:17:51;98201.84;;;17.68;48.68
22753;BME280;11543;43.144;24.684;2023-11-21T12:20:22;98217.88;;;17.76;48.98
22753;BME280;11543;43.144;24.684;2023-11-21T12:22:49;98224.97;;;17.77;48.65
22753;BME280;11543;43.144;24.684;2023-11-21T12:25:19;98225.19;;;17.75;48.75
22753;BME280;11543;43.144;24.684;2023-11-21T12:27:46;98222.72;;;17.67;48.71
22753;BME280;11543;43.144;24.684;2023-11-21T12:30:15;98224.56;;;17.73;48.66
22753;BME280;11543;43.144;24.684;2023-11-21T12:32:44;98212.91;;;17.60;48.91
22753;BME280;11543;43.144;24.684;2023-11-21T12:35:13;98239.19;;;17.72;48.41
22753;BME280;11543;43.144;24.684;2023-11-21T12:37:40;98223.34;;;17.69;48.06
22753;BME280;11543;43.144;24.684;2023-11-21T12:40:11;98229.38;;;17.71;47.59
22753;BME280;11543;43.144;24.684;2023-11-21T12:42:41;98222.28;;;17.70;48.01
22753;BME280;11543;43.144;24.684;2023-11-21T12:47:44;98223.78;;;17.66;48.00
22753;BME280;11543;43.144;24.684;2023-11-21T12:50:13;98207.94;;;17.57;48.15
22753;BME280;11543;43.144;24.684;2023-11-21T12:52:43;98217.09;;;17.62;48.31
22753;BME280;11543;43.144;24.684;2023-11-21T12:55:17;98204.19;;;17.51;48.69
22753;BME280;11543;43.144;24.684;2023-11-21T12:57:44;98197.53;;;17.47;49.00
22753;BME280;11543;43.144;24.684;2023-11-21T13:00:10;98204.22;;;17.44;49.15
22753;BME280;11543;43.144;24.684;2023-11-21T13:02:41;98196.31;;;17.36;48.71
22753;BME280;11543;43.144;24.684;2023-11-21T13:05:08;98212.16;;;17.46;48.81
22753;BME280;11543;43.144;24.684;2023-11-21T13:07:44;98194.22;;;17.32;48.81
22753;BME280;11543;43.144;24.684;2023-11-21T13:10:13;98200.47;;;17.32;49.36
22753;BME280;11543;43.144;24.684;2023-11-21T13:12:47;98216.13;;;17.37;49.46
22753;BME280;11543;43.144;24.684;2023-11-21T13:15:14;98221.13;;;17.40;49.79
22753;BME280;11543;43.144;24.684;2023-11-21T13:17:43;98229.28;;;17.40;50.29